Aviation Digital Data Service (ADDS)

Output produced by METARs form (1524 UTC 15 October 2018)
found at http://aviationweather.gov/metar/data/
 
KBTR 151447Z 1515/1612 11004KT P6SM BKN009 
     FM151515 12004KT P6SM BKN012 BKN070 
     FM151700 12004KT P6SM VCSH SCT022 BKN035 
     FM152200 03004KT P6SM BKN040 OVC080 
     FM160400 02005KT P6SM VCSH BKN025 OVC030 
     FM160700 VRB04KT 5SM BR BKN008